Time;durP1;ratioP1;P1;durP2;ratioP2;P2;SDS_P1;SDS_P2;PMS_P1;PMS_P2;Temp;Humidity;BMP_temperature;BMP_pressure;BME280_temperature;BME280_humidity;BME280_pressure;Samples;Min_cycle;Max_cycle;Signal;HPM_P1;HPM_P2
2022/03/07 00:01:50;;;;;;;5.60;3.67;;;16.00;62.50;;;;;;5078514;28;20135;-19
2022/03/07 00:04:17;;;;;;;3.70;3.40;;;15.90;62.50;;;;;;5077075;28;20561;-19
2022/03/07 00:06:43;;;;;;;3.97;3.67;;;15.90;62.50;;;;;;5059417;28;20041;-19
2022/03/07 00:09:09;;;;;;;5.53;3.55;;;15.90;62.40;;;;;;5063810;28;20520;-19
2022/03/07 00:11:35;;;;;;;3.65;3.45;;;15.90;62.50;;;;;;5077918;28;20475;-19
2022/03/07 00:14:01;;;;;;;3.47;3.25;;;15.90;62.50;;;;;;5070394;28;20053;-19
2022/03/07 00:16:27;;;;;;;3.58;3.28;;;15.90;62.50;;;;;;5065822;28;20052;-19
2022/03/07 00:18:53;;;;;;;3.60;3.30;;;15.90;62.40;;;;;;5071765;28;20060;-19
2022/03/07 00:21:19;;;;;;;3.58;3.38;;;15.90;62.40;;;;;;5062311;28;20056;-19
2022/03/07 00:23:44;;;;;;;3.30;3.00;;;15.90;62.50;;;;;;5058406;28;20049;-19
2022/03/07 00:26:10;;;;;;;4.07;3.78;;;15.90;62.50;;;;;;5066086;28;20037;-19
2022/03/07 00:28:36;;;;;;;3.53;3.33;;;15.90;62.60;;;;;;5065681;28;20577;-19
2022/03/07 00:31:01;;;;;;;3.53;3.28;;;15.90;62.40;;;;;;5062349;28;20043;-19
2022/03/07 00:33:27;;;;;;;3.67;3.40;;;15.90;62.40;;;;;;5070858;28;20486;-19
2022/03/07 00:35:52;;;;;;;3.15;2.95;;;15.90;62.30;;;;;;5076138;28;20096;-19
2022/03/07 00:38:18;;;;;;;3.22;3.03;;;15.90;62.40;;;;;;5074868;28;20129;-19
2022/03/07 00:40:43;;;;;;;3.40;3.13;;;15.90;63.30;;;;;;5057654;28;20484;-19
2022/03/07 00:43:09;;;;;;;3.38;3.10;;;15.90;62.40;;;;;;5056991;28;20445;-19
2022/03/07 00:45:35;;;;;;;3.20;3.00;;;15.90;62.40;;;;;;5060120;28;20047;-19
2022/03/07 00:48:00;;;;;;;3.30;3.00;;;15.80;62.40;;;;;;5065471;28;20047;-19
2022/03/07 00:50:26;;;;;;;3.08;2.88;;;15.80;62.30;;;;;;5064954;28;20072;-19
2022/03/07 00:52:52;;;;;;;2.92;2.72;;;15.90;62.30;;;;;;5072434;28;20068;-19
2022/03/07 00:55:17;;;;;;;3.53;3.33;;;15.90;62.30;;;;;;5065693;28;20057;-19
2022/03/07 00:57:43;;;;;;;3.17;2.97;;;15.80;62.30;;;;;;5057563;28;20072;-19
2022/03/07 01:00:09;;;;;;;3.30;3.00;;;15.90;62.30;;;;;;5057006;28;20103;-19
2022/03/07 01:02:35;;;;;;;3.63;3.13;;;15.80;62.20;;;;;;5057216;28;20136;-19
2022/03/07 01:05:01;;;;;;;3.70;3.50;;;15.90;62.30;;;;;;5056793;28;20076;-19
2022/03/07 01:07:27;;;;;;;3.42;3.13;;;15.80;62.20;;;;;;5075516;28;20074;-19
2022/03/07 01:09:53;;;;;;;3.35;3.15;;;15.80;62.30;;;;;;5069958;28;20056;-19
2022/03/07 01:12:18;;;;;;;4.15;3.35;;;15.80;63.00;;;;;;5056478;28;20041;-19
2022/03/07 01:14:44;;;;;;;3.58;3.25;;;15.80;62.10;;;;;;5071396;28;20119;-19
2022/03/07 01:17:10;;;;;;;2.97;2.78;;;15.80;62.20;;;;;;5056513;28;20132;-19
2022/03/07 01:19:35;;;;;;;3.25;3.03;;;15.80;62.20;;;;;;5067422;28;20049;-18
2022/03/07 01:22:01;;;;;;;3.75;2.70;;;15.80;62.30;;;;;;5060967;28;20045;-19
2022/03/07 01:24:28;;;;;;;3.20;3.10;;;15.80;62.20;;;;;;5062840;28;20160;-19
2022/03/07 01:26:54;;;;;;;3.20;3.00;;;15.80;62.10;;;;;;5068036;28;20040;-19
2022/03/07 01:29:19;;;;;;;2.90;2.78;;;15.80;62.10;;;;;;5063266;28;20055;-19
2022/03/07 01:31:45;;;;;;;3.20;3.00;;;15.80;62.10;;;;;;5065756;28;20064;-18
2022/03/07 01:34:11;;;;;;;3.40;3.10;;;15.80;62.20;;;;;;5056140;28;20048;-19
2022/03/07 01:36:36;;;;;;;2.90;2.80;;;15.80;62.30;;;;;;5061527;28;20139;-19
2022/03/07 01:39:02;;;;;;;2.88;2.67;;;15.80;62.30;;;;;;5063775;28;20071;-19
2022/03/07 01:41:28;;;;;;;3.45;3.20;;;15.80;62.50;;;;;;5070429;28;20045;-19
2022/03/07 01:43:53;;;;;;;2.67;2.47;;;15.70;62.40;;;;;;5056247;28;20044;-19
2022/03/07 01:46:19;;;;;;;2.80;2.70;;;15.70;62.40;;;;;;5091204;28;20039;-19
2022/03/07 01:48:44;;;;;;;2.90;2.70;;;15.70;62.40;;;;;;5096693;28;20046;-18
2022/03/07 01:51:11;;;;;;;3.15;2.72;;;15.70;62.30;;;;;;5074288;28;20051;-19
2022/03/07 01:53:38;;;;;;;2.95;2.78;;;15.70;62.30;;;;;;5076003;28;20052;-19
2022/03/07 01:56:04;;;;;;;2.55;2.45;;;15.70;62.30;;;;;;5062977;28;20045;-19
2022/03/07 01:58:29;;;;;;;2.78;2.58;;;15.70;62.30;;;;;;5054576;28;20053;-19
2022/03/07 02:00:55;;;;;;;2.50;2.40;;;15.70;62.40;;;;;;5056182;28;20056;-19
2022/03/07 02:03:21;;;;;;;2.90;2.70;;;15.70;62.40;;;;;;5055299;28;20051;-19
2022/03/07 02:05:47;;;;;;;2.60;2.50;;;15.70;62.40;;;;;;5061853;28;20040;-19
2022/03/07 02:08:12;;;;;;;2.80;2.70;;;15.70;62.40;;;;;;5060765;28;20052;-19
2022/03/07 02:10:38;;;;;;;3.03;2.85;;;15.70;62.40;;;;;;5064575;28;20131;-19
2022/03/07 02:13:14;;;;;;;3.00;2.80;;;15.70;62.30;;;;;;5057972;28;20045;-19
2022/03/07 02:15:39;;;;;;;3.10;2.90;;;15.70;62.10;;;;;;5094173;28;20048;-19
2022/03/07 02:18:05;;;;;;;3.22;3.03;;;15.70;62.20;;;;;;5086714;28;20048;-19
2022/03/07 02:20:31;;;;;;;2.65;2.55;;;15.60;62.30;;;;;;5063852;28;20052;-19
2022/03/07 02:22:56;;;;;;;2.97;2.75;;;15.60;62.30;;;;;;5061363;28;20037;-19
2022/03/07 02:25:22;;;;;;;2.83;2.63;;;15.60;62.30;;;;;;5073683;28;20052;-19
2022/03/07 02:27:47;;;;;;;3.17;2.97;;;15.60;62.30;;;;;;5064658;28;20049;-18
2022/03/07 02:30:13;;;;;;;3.20;3.00;;;15.60;62.30;;;;;;5053661;28;20049;-19
2022/03/07 02:32:44;;;;;;;2.97;2.88;;;15.60;62.40;;;;;;5060886;28;20464;-19
2022/03/07 02:35:13;;;;;;;2.97;2.60;;;15.60;63.20;;;;;;5073021;28;20048;-19
2022/03/07 02:37:39;;;;;;;2.38;2.28;;;15.60;62.40;;;;;;5075529;28;20085;-19
2022/03/07 02:40:05;;;;;;;2.90;2.72;;;15.60;62.30;;;;;;5056761;28;20638;-19
2022/03/07 02:42:31;;;;;;;2.80;2.60;;;15.60;62.30;;;;;;5054788;28;20045;-19
2022/03/07 02:44:56;;;;;;;2.97;2.78;;;15.60;62.40;;;;;;5068961;28;20528;-18
2022/03/07 02:47:23;;;;;;;2.75;2.55;;;15.60;62.40;;;;;;5072920;28;20043;-19
2022/03/07 02:49:49;;;;;;;2.33;2.22;;;15.60;62.40;;;;;;5066421;28;20040;-19
2022/03/07 02:52:15;;;;;;;2.38;2.28;;;15.60;62.30;;;;;;5064507;28;20109;-19
2022/03/07 02:54:40;;;;;;;2.30;2.20;;;15.60;62.20;;;;;;5069389;28;20751;-19
2022/03/07 02:57:07;;;;;;;2.95;2.75;;;15.60;62.30;;;;;;5059142;28;20056;-19
2022/03/07 02:59:32;;;;;;;2.40;2.30;;;15.60;62.20;;;;;;5061988;28;20041;-19
2022/03/07 03:01:58;;;;;;;2.30;2.20;;;15.60;62.10;;;;;;5075617;28;20099;-18
2022/03/07 03:04:23;;;;;;;2.20;2.10;;;15.60;62.00;;;;;;5065118;28;20041;-18
2022/03/07 03:06:49;;;;;;;2.25;2.15;;;15.60;62.10;;;;;;5054971;28;20083;-19
2022/03/07 03:09:15;;;;;;;2.25;2.15;;;15.60;61.90;;;;;;5054298;28;20044;-19
2022/03/07 03:11:40;;;;;;;2.60;2.40;;;15.60;61.70;;;;;;5055439;28;20045;-19
2022/03/07 03:14:06;;;;;;;2.20;2.10;;;15.60;61.70;;;;;;5063314;28;20509;-19
2022/03/07 03:16:32;;;;;;;2.50;2.40;;;15.70;61.70;;;;;;5054518;28;20144;-19
2022/03/07 03:18:58;;;;;;;2.30;2.20;;;15.70;61.60;;;;;;5061812;28;20076;-19
2022/03/07 03:21:23;;;;;;;2.10;2.00;;;15.70;61.70;;;;;;5058159;28;20076;-19
2022/03/07 03:23:49;;;;;;;2.35;2.25;;;15.70;61.60;;;;;;5057524;28;20040;-19
2022/03/07 03:26:14;;;;;;;2.22;2.13;;;15.70;61.50;;;;;;5057271;28;20044;-19
2022/03/07 03:28:41;;;;;;;2.33;2.13;;;15.60;61.60;;;;;;5064178;28;20068;-19
2022/03/07 03:31:08;;;;;;;2.60;2.40;;;15.60;61.90;;;;;;5074860;28;20051;-19
2022/03/07 03:33:35;;;;;;;2.30;2.20;;;15.60;62.00;;;;;;5063054;28;20131;-19
2022/03/07 03:36:01;;;;;;;2.20;2.05;;;15.60;61.80;;;;;;5059352;28;20056;-19
2022/03/07 03:38:27;;;;;;;2.17;2.08;;;15.60;61.60;;;;;;5057875;28;20041;-19
2022/03/07 03:40:52;;;;;;;2.90;2.05;;;15.60;61.50;;;;;;5058450;28;20045;-19
2022/03/07 03:43:18;;;;;;;2.15;2.05;;;15.60;61.50;;;;;;5066023;28;20040;-19
2022/03/07 03:45:44;;;;;;;2.38;2.28;;;15.60;61.80;;;;;;5071065;28;20059;-19
2022/03/07 03:48:09;;;;;;;2.20;2.10;;;15.60;61.70;;;;;;5058413;28;20446;-19
2022/03/07 03:50:35;;;;;;;2.10;2.00;;;15.60;61.60;;;;;;5063040;28;20072;-19
2022/03/07 03:53:00;;;;;;;2.00;1.90;;;15.60;61.60;;;;;;5074865;28;20050;-19
2022/03/07 03:55:26;;;;;;;2.30;2.20;;;15.60;61.60;;;;;;5063871;28;20072;-19
2022/03/07 03:57:52;;;;;;;2.15;2.05;;;15.60;61.50;;;;;;5058519;28;20111;-19
2022/03/07 04:00:18;;;;;;;2.08;1.98;;;15.60;61.80;;;;;;5058135;28;20037;-19
2022/03/07 04:02:43;;;;;;;1.85;1.75;;;15.60;61.60;;;;;;5058565;28;20053;-19
2022/03/07 04:05:10;;;;;;;2.08;1.98;;;15.50;61.80;;;;;;5062719;28;20056;-19
2022/03/07 04:07:37;;;;;;;2.30;2.20;;;15.50;61.80;;;;;;5057447;28;20041;-19
2022/03/07 04:10:03;;;;;;;2.03;1.92;;;15.50;61.80;;;;;;5058296;28;20670;-19
2022/03/07 04:12:28;;;;;;;2.03;1.92;;;15.50;61.80;;;;;;5071715;28;20425;-19
2022/03/07 04:14:54;;;;;;;2.33;2.22;;;15.50;61.80;;;;;;5080358;28;20051;-19
2022/03/07 04:17:19;;;;;;;2.10;2.00;;;15.50;61.70;;;;;;5064543;28;20049;-19
2022/03/07 04:19:45;;;;;;;2.40;2.30;;;15.50;61.50;;;;;;5066658;28;20056;-19
2022/03/07 04:22:11;;;;;;;2.10;2.00;;;15.50;61.50;;;;;;5057590;28;20489;-19
2022/03/07 04:24:36;;;;;;;2.05;1.95;;;15.50;61.70;;;;;;5057354;28;20049;-19
2022/03/07 04:27:03;;;;;;;2.10;1.92;;;15.50;61.70;;;;;;5061225;28;20037;-19
2022/03/07 04:29:29;;;;;;;1.95;1.85;;;15.50;61.50;;;;;;5069673;28;20032;-19
2022/03/07 04:31:54;;;;;;;2.80;2.60;;;15.50;61.70;;;;;;5057875;28;20131;-18
2022/03/07 04:34:20;;;;;;;1.90;1.80;;;15.50;61.70;;;;;;5057991;28;20044;-19
2022/03/07 04:36:45;;;;;;;2.00;1.90;;;15.50;61.60;;;;;;5065967;28;20049;-19
2022/03/07 04:39:11;;;;;;;2.15;2.05;;;15.50;61.50;;;;;;5057540;28;20039;-19
2022/03/07 04:41:37;;;;;;;2.20;2.10;;;15.50;61.50;;;;;;5068092;28;20048;-19
2022/03/07 04:44:03;;;;;;;1.88;1.77;;;15.40;61.60;;;;;;5075794;28;20036;-18
2022/03/07 04:46:28;;;;;;;2.60;2.40;;;15.40;61.80;;;;;;5096161;28;20051;-19
2022/03/07 04:48:54;;;;;;;2.03;1.92;;;15.40;61.80;;;;;;5095448;28;20101;-19
2022/03/07 04:51:19;;;;;;;1.92;1.83;;;15.40;61.70;;;;;;5063910;28;20048;-19
2022/03/07 04:53:45;;;;;;;2.05;1.95;;;15.50;62.40;;;;;;5076339;28;20747;-19
2022/03/07 04:56:11;;;;;;;2.47;2.38;;;15.40;61.50;;;;;;5077652;28;20053;-19
2022/03/07 04:58:37;;;;;;;2.50;2.30;;;15.40;61.60;;;;;;5061316;28;20414;-19
2022/03/07 05:01:03;;;;;;;2.20;2.10;;;15.40;61.80;;;;;;5057263;28;20072;-19
2022/03/07 05:03:28;;;;;;;2.33;2.22;;;15.40;61.70;;;;;;5076752;28;20052;-19
2022/03/07 05:05:54;;;;;;;2.17;1.98;;;15.40;61.90;;;;;;5070384;28;20051;-19
2022/03/07 05:08:19;;;;;;;2.05;1.95;;;15.40;61.50;;;;;;5056650;28;20498;-19
2022/03/07 05:10:45;;;;;;;2.00;1.90;;;15.40;61.50;;;;;;5057097;28;20048;-19
2022/03/07 05:13:10;;;;;;;1.90;1.80;;;15.40;61.50;;;;;;5057155;28;20041;-19
2022/03/07 05:15:36;;;;;;;2.10;2.00;;;15.40;61.50;;;;;;5095450;28;20080;-19
2022/03/07 05:18:02;;;;;;;2.20;2.10;;;15.40;61.50;;;;;;5097334;28;20047;-19
2022/03/07 05:20:28;;;;;;;2.05;1.95;;;15.50;61.40;;;;;;5077723;28;20105;-19
2022/03/07 05:22:53;;;;;;;1.95;1.85;;;15.50;61.40;;;;;;5060906;28;20045;-18
2022/03/07 05:25:19;;;;;;;2.15;2.05;;;15.40;61.30;;;;;;5056935;28;20062;-19
2022/03/07 05:27:45;;;;;;;2.00;1.90;;;15.50;61.40;;;;;;5058261;28;20045;-19
2022/03/07 05:30:15;;;;;;;2.30;2.20;;;15.40;61.40;;;;;;5067717;28;20497;-19
2022/03/07 05:32:44;;;;;;;1.90;1.80;;;15.40;61.60;;;;;;5076242;28;20064;-19
2022/03/07 05:35:10;;;;;;;2.00;1.90;;;15.40;61.50;;;;;;5071713;28;20055;-19
2022/03/07 05:37:36;;;;;;;3.92;1.98;;;15.50;61.30;;;;;;5091387;28;20168;-19
2022/03/07 05:40:02;;;;;;;2.20;2.10;;;15.50;61.30;;;;;;5068791;28;20072;-19
2022/03/07 05:42:28;;;;;;;1.90;1.80;;;15.50;61.30;;;;;;5055105;28;20033;-19
2022/03/07 05:44:53;;;;;;;2.10;2.00;;;15.50;61.30;;;;;;5069430;28;20433;-19
2022/03/07 05:47:19;;;;;;;2.10;2.00;;;15.50;61.10;;;;;;5096754;28;20496;-19
2022/03/07 05:49:44;;;;;;;1.67;1.58;;;15.50;61.20;;;;;;5071463;28;20048;-19
2022/03/07 05:52:10;;;;;;;2.10;2.00;;;15.50;61.00;;;;;;5065824;28;20096;-19
2022/03/07 05:54:35;;;;;;;1.83;1.73;;;15.50;61.10;;;;;;5073521;28;20048;-19
2022/03/07 05:57:01;;;;;;;1.92;1.83;;;15.50;61.00;;;;;;5056412;28;20383;-19
2022/03/07 05:59:27;;;;;;;2.17;2.08;;;15.50;61.20;;;;;;5062171;28;20485;-19
2022/03/07 06:01:52;;;;;;;1.98;1.88;;;15.50;61.10;;;;;;5061130;28;20068;-19
2022/03/07 06:04:18;;;;;;;2.05;1.95;;;15.50;61.10;;;;;;5075166;28;20058;-19
2022/03/07 06:06:44;;;;;;;2.10;2.00;;;15.40;61.10;;;;;;5058824;28;20059;-19
2022/03/07 06:09:09;;;;;;;1.90;1.80;;;15.40;61.50;;;;;;5071185;28;20051;-19
2022/03/07 06:11:35;;;;;;;2.35;2.25;;;15.40;62.10;;;;;;5069835;28;20048;-19
2022/03/07 06:14:01;;;;;;;1.90;1.80;;;15.40;62.70;;;;;;4716229;28;10000310;-19
2022/03/07 06:16:26;;;;;;;1.90;1.80;;;15.40;62.70;;;;;;5071347;28;20041;-19
2022/03/07 06:18:52;;;;;;;3.47;3.28;;;15.40;63.00;;;;;;5065101;28;20055;-19
2022/03/07 06:21:17;;;;;;;4.82;4.40;;;15.50;62.80;;;;;;5070981;28;20052;-19
2022/03/07 06:23:43;;;;;;;5.45;4.97;;;15.40;62.80;;;;;;5070752;28;20060;-19
2022/03/07 06:26:08;;;;;;;7.03;6.32;;;15.50;62.80;;;;;;5066285;28;20467;-18
2022/03/07 06:28:34;;;;;;;8.63;6.65;;;15.50;62.80;;;;;;5058289;28;20057;-18
2022/03/07 06:31:00;;;;;;;10.80;7.28;;;15.50;62.80;;;;;;5070574;28;20044;-19
2022/03/07 06:33:25;;;;;;;12.23;8.82;;;15.40;62.70;;;;;;5071741;28;20433;-19
2022/03/07 06:35:51;;;;;;;14.68;9.80;;;15.50;63.60;;;;;;5068295;28;20041;-19
2022/03/07 06:38:19;;;;;;;12.73;8.60;;;15.50;62.90;;;;;;5059282;28;20068;-18
2022/03/07 06:40:45;;;;;;;11.00;7.80;;;15.50;62.90;;;;;;5059939;28;20048;-19
2022/03/07 06:43:10;;;;;;;10.60;7.90;;;15.50;62.70;;;;;;5067894;28;20060;-19
2022/03/07 06:45:36;;;;;;;20.67;8.57;;;15.40;63.00;;;;;;5069678;28;20063;-19
2022/03/07 06:48:02;;;;;;;10.27;7.40;;;15.40;63.60;;;;;;5060808;28;20051;-19
2022/03/07 06:50:27;;;;;;;12.75;8.15;;;15.40;63.60;;;;;;5075116;28;20045;-19
2022/03/07 06:52:53;;;;;;;15.43;8.98;;;15.40;63.60;;;;;;5066379;28;20053;-19
2022/03/07 06:55:19;;;;;;;12.77;8.32;;;15.40;63.80;;;;;;5055166;28;20140;-19
2022/03/07 06:57:44;;;;;;;12.95;8.85;;;15.40;63.90;;;;;;5054926;28;20064;-19
2022/03/07 07:00:13;;;;;;;13.05;8.52;;;15.40;63.80;;;;;;5066537;28;20045;-19
2022/03/07 07:02:38;;;;;;;16.40;8.55;;;15.40;63.80;;;;;;5057610;28;20533;-19
2022/03/07 07:05:05;;;;;;;13.93;8.43;;;15.30;63.90;;;;;;5065277;28;20044;-19
2022/03/07 07:07:30;;;;;;;12.10;8.25;;;15.40;63.60;;;;;;5064541;28;20057;-19
2022/03/07 07:09:56;;;;;;;15.57;8.60;;;15.50;63.40;;;;;;5067112;28;20074;-18
2022/03/07 07:12:22;;;;;;;10.95;8.25;;;15.40;63.50;;;;;;5070022;28;20037;-18
2022/03/07 07:14:48;;;;;;;13.98;8.48;;;15.40;63.60;;;;;;5078369;28;20045;-19
2022/03/07 07:17:14;;;;;;;19.90;8.55;;;15.50;63.20;;;;;;5066069;28;20051;-19
2022/03/07 07:19:39;;;;;;;12.85;8.70;;;15.50;63.20;;;;;;5052237;28;20049;-19
2022/03/07 07:22:05;;;;;;;11.18;7.97;;;15.50;63.20;;;;;;5057825;28;20055;-18
2022/03/07 07:24:31;;;;;;;10.52;7.97;;;15.40;63.00;;;;;;5071041;28;20051;-19
2022/03/07 07:26:56;;;;;;;12.38;8.30;;;15.40;63.10;;;;;;5065586;28;20036;-18
2022/03/07 07:29:22;;;;;;;10.63;8.10;;;15.40;63.20;;;;;;5059863;28;20049;-18
2022/03/07 07:31:47;;;;;;;12.40;8.45;;;15.40;63.30;;;;;;5068697;28;20529;-18
2022/03/07 07:34:14;;;;;;;11.43;8.10;;;15.40;63.30;;;;;;5073378;28;20048;-19
2022/03/07 07:36:39;;;;;;;11.93;8.02;;;15.40;63.50;;;;;;5064023;28;20049;-18
2022/03/07 07:39:05;;;;;;;10.70;7.50;;;15.50;63.60;;;;;;5073125;28;20409;-18
2022/03/07 07:41:31;;;;;;;12.25;8.18;;;15.40;63.40;;;;;;5073152;28;20044;-18
2022/03/07 07:43:56;;;;;;;16.58;7.63;;;15.40;63.50;;;;;;5057023;28;20142;-18
2022/03/07 07:46:22;;;;;;;12.50;7.97;;;15.40;63.50;;;;;;5092357;28;20036;-18
2022/03/07 07:48:47;;;;;;;13.50;8.80;;;15.40;63.50;;;;;;5057771;28;21628;-18
2022/03/07 07:51:13;;;;;;;12.23;7.47;;;15.50;63.70;;;;;;5061733;28;20044;-19
2022/03/07 07:53:39;;;;;;;13.30;8.10;;;15.40;63.80;;;;;;5056839;28;20110;-19
2022/03/07 07:56:04;;;;;;;10.82;7.57;;;15.40;63.70;;;;;;5064049;28;20080;-18
2022/03/07 07:58:30;;;;;;;9.95;7.13;;;15.40;63.70;;;;;;5069148;28;20067;-19
2022/03/07 08:00:56;;;;;;;13.70;7.10;;;15.40;64.00;;;;;;5074302;28;20048;-18
2022/03/07 08:03:21;;;;;;;9.75;7.32;;;15.40;64.00;;;;;;5074864;28;20497;-18
2022/03/07 08:05:48;;;;;;;12.13;7.38;;;15.50;64.40;;;;;;5070185;28;20040;-18
2022/03/07 08:08:17;;;;;;;9.13;7.63;;;15.40;64.40;;;;;;5075234;28;20044;-18
2022/03/07 08:10:42;;;;;;;9.00;7.03;;;15.40;64.00;;;;;;5077168;28;20527;-19
2022/03/07 08:13:08;;;;;;;11.30;6.75;;;15.40;64.00;;;;;;5063397;28;20140;-19
2022/03/07 08:15:33;;;;;;;7.32;6.10;;;15.40;64.50;;;;;;5094400;28;20039;-19
2022/03/07 08:17:59;;;;;;;8.65;6.40;;;15.40;64.80;;;;;;5080474;28;20045;-19
2022/03/07 08:20:27;;;;;;;8.02;6.47;;;15.40;64.60;;;;;;5057718;28;20059;-19
2022/03/07 08:22:52;;;;;;;14.32;8.15;;;15.40;64.50;;;;;;5057146;28;20049;-19
2022/03/07 08:25:19;;;;;;;14.45;9.75;;;15.50;64.40;;;;;;5057810;28;20071;-19
2022/03/07 08:27:44;;;;;;;18.23;11.57;;;15.50;63.80;;;;;;5057239;28;20498;-19
2022/03/07 08:30:11;;;;;;;18.52;11.77;;;15.60;64.30;;;;;;5055617;28;20467;-18
2022/03/07 08:32:37;;;;;;;12.48;9.60;;;15.60;64.60;;;;;;5057632;28;20045;-19
2022/03/07 08:35:04;;;;;;;14.82;10.77;;;15.60;64.90;;;;;;5057824;28;20045;-19
2022/03/07 08:37:30;;;;;;;18.73;13.15;;;15.70;64.30;;;;;;5057400;28;20037;-18
2022/03/07 08:39:55;;;;;;;14.60;11.07;;;15.70;64.40;;;;;;5056811;28;20052;-19
2022/03/07 08:42:21;;;;;;;18.10;11.27;;;15.70;64.60;;;;;;5057499;28;20084;-20
2022/03/07 08:44:46;;;;;;;17.90;11.68;;;15.80;64.60;;;;;;5074487;28;20123;-19
2022/03/07 08:47:12;;;;;;;15.73;11.27;;;15.80;64.20;;;;;;5075567;28;20058;-19
2022/03/07 08:49:38;;;;;;;15.40;11.75;;;15.80;64.40;;;;;;5063666;28;20051;-19
2022/03/07 08:52:04;;;;;;;18.20;12.23;;;15.80;64.30;;;;;;5069359;28;20044;-19
2022/03/07 08:54:29;;;;;;;17.58;12.60;;;15.80;64.40;;;;;;5064259;28;20539;-19
2022/03/07 08:56:55;;;;;;;15.70;11.82;;;15.80;64.20;;;;;;5076770;28;20106;-19
2022/03/07 08:59:21;;;;;;;16.35;12.02;;;15.70;63.60;;;;;;5065777;28;20049;-19
2022/03/07 09:01:46;;;;;;;16.13;12.45;;;15.70;64.00;;;;;;5065182;28;20067;-18
2022/03/07 09:04:12;;;;;;;17.80;11.82;;;15.70;64.00;;;;;;5076722;28;20089;-19
2022/03/07 09:06:37;;;;;;;16.90;12.27;;;15.70;64.00;;;;;;5062393;28;20047;-19
2022/03/07 09:09:03;;;;;;;15.77;12.93;;;15.70;63.80;;;;;;5062678;28;20135;-19
2022/03/07 09:11:29;;;;;;;17.55;12.52;;;15.70;63.50;;;;;;5065164;28;20500;-19
2022/03/07 09:13:54;;;;;;;16.90;12.95;;;15.70;63.50;;;;;;5064202;28;20049;-19
2022/03/07 09:16:20;;;;;;;16.35;12.32;;;15.70;63.50;;;;;;5060917;28;20070;-19
2022/03/07 09:18:45;;;;;;;15.75;11.75;;;15.80;63.30;;;;;;5062993;28;20522;-19
2022/03/07 09:21:11;;;;;;;15.05;11.90;;;15.80;62.90;;;;;;5067116;28;20052;-19
2022/03/07 09:23:40;;;;;;;19.35;12.75;;;15.80;63.10;;;;;;5075736;28;20052;-19
2022/03/07 09:26:06;;;;;;;16.67;12.73;;;15.80;62.60;;;;;;5076821;28;20045;-19
2022/03/07 09:28:33;;;;;;;15.25;12.43;;;15.90;62.30;;;;;;5064698;28;20051;-19
2022/03/07 09:30:59;;;;;;;15.75;12.20;;;15.90;62.40;;;;;;5056301;28;20040;-19
2022/03/07 09:33:24;;;;;;;14.02;11.55;;;15.90;62.00;;;;;;5062707;28;20052;-19
2022/03/07 09:35:50;;;;;;;16.00;12.10;;;16.00;62.00;;;;;;5057819;28;20582;-19
2022/03/07 09:38:16;;;;;;;14.30;11.43;;;16.00;61.90;;;;;;5056461;28;20076;-19
2022/03/07 09:40:42;;;;;;;16.23;11.95;;;16.00;62.00;;;;;;5069869;28;20049;-19
2022/03/07 09:43:07;;;;;;;14.90;10.95;;;16.00;62.00;;;;;;5068703;28;20075;-19
2022/03/07 09:45:33;;;;;;;12.93;10.52;;;16.10;62.80;;;;;;5067433;28;20501;-19
2022/03/07 09:47:59;;;;;;;11.82;10.38;;;16.10;62.00;;;;;;5073886;28;20052;-19
2022/03/07 09:50:24;;;;;;;13.75;10.63;;;16.20;62.10;;;;;;5049436;28;20057;-19
2022/03/07 09:52:50;;;;;;;13.05;10.27;;;16.20;62.00;;;;;;5082405;28;20037;-19
2022/03/07 09:55:16;;;;;;;12.98;10.20;;;16.20;61.90;;;;;;5062558;28;20045;-19
2022/03/07 09:57:43;;;;;;;12.77;10.20;;;16.20;61.90;;;;;;5075109;28;20384;-19
2022/03/07 10:00:09;;;;;;;12.93;10.25;;;16.20;61.80;;;;;;5066665;28;20045;-19
2022/03/07 10:02:35;;;;;;;12.88;10.35;;;16.20;61.30;;;;;;5056260;28;20114;-18
2022/03/07 10:05:02;;;;;;;11.25;9.80;;;16.20;61.60;;;;;;5073934;28;20040;-19
2022/03/07 10:07:28;;;;;;;15.02;10.52;;;16.20;61.50;;;;;;5075888;28;20036;-19
2022/03/07 10:10:04;;;;;;;10.43;8.82;;;16.20;61.50;;;;;;5073652;28;20036;-18
2022/03/07 10:12:30;;;;;;;13.40;10.30;;;16.30;61.60;;;;;;5062284;28;20444;-18
2022/03/07 10:14:56;;;;;;;12.35;9.80;;;16.30;61.30;;;;;;5088911;28;20062;-19
2022/03/07 10:17:26;;;;;;;12.80;8.95;;;16.40;61.00;;;;;;5074028;28;20053;-19
2022/03/07 10:19:53;;;;;;;9.73;8.68;;;16.40;61.10;;;;;;5053678;28;20041;-20
2022/03/07 10:22:23;;;;;;;10.52;9.43;;;16.40;61.10;;;;;;5055484;28;20040;-19
2022/03/07 10:25:04;;;;;;;8.85;7.95;;;16.40;61.10;;;;;;5068046;28;20033;-19
2022/03/07 10:27:32;;;;;;;10.35;8.38;;;16.40;61.10;;;;;;5075225;28;20036;-19
2022/03/07 10:29:58;;;;;;;10.25;8.30;;;16.40;61.00;;;;;;5058148;28;20132;-19
2022/03/07 10:32:23;;;;;;;9.90;8.43;;;16.50;61.20;;;;;;5054238;28;20091;-18
2022/03/07 10:34:49;;;;;;;9.70;7.80;;;16.40;61.10;;;;;;5054984;28;20037;-19
2022/03/07 10:37:15;;;;;;;9.07;8.13;;;16.50;61.30;;;;;;5055599;28;20051;-19
2022/03/07 10:39:48;;;;;;;8.63;7.72;;;16.50;61.30;;;;;;5054832;28;20123;-18
2022/03/07 10:42:17;;;;;;;9.57;8.23;;;16.50;61.20;;;;;;5055450;28;20041;-19
2022/03/07 10:44:43;;;;;;;8.93;8.02;;;16.50;61.30;;;;;;5063765;28;20520;-19
2022/03/07 10:47:11;;;;;;;9.73;8.30;;;16.50;61.40;;;;;;5056681;28;20555;-19
2022/03/07 10:49:55;;;;;;;9.35;7.35;;;16.50;61.30;;;;;;5073357;28;20047;-18
2022/03/07 10:52:21;;;;;;;9.05;8.15;;;16.60;61.30;;;;;;5064275;28;20531;-19
2022/03/07 10:54:50;;;;;;;8.52;7.72;;;16.60;61.20;;;;;;5060043;28;20047;-19
2022/03/07 10:57:20;;;;;;;8.27;7.47;;;16.60;61.20;;;;;;5055694;28;20056;-18
2022/03/07 10:59:45;;;;;;;8.95;8.05;;;16.60;61.10;;;;;;5054692;28;20108;-19
2022/03/07 11:02:14;;;;;;;8.82;7.93;;;16.60;61.10;;;;;;5068318;28;20517;-19
2022/03/07 11:04:40;;;;;;;10.40;8.20;;;16.60;61.00;;;;;;5064280;28;20044;-19
2022/03/07 11:07:08;;;;;;;9.48;8.48;;;16.70;61.00;;;;;;5062903;28;20048;-19
2022/03/07 11:09:34;;;;;;;8.65;7.85;;;16.70;61.00;;;;;;5055024;28;20036;-19
2022/03/07 11:11:59;;;;;;;8.70;7.80;;;16.70;60.80;;;;;;5064611;28;20056;-19
2022/03/07 11:14:26;;;;;;;8.13;7.32;;;16.70;60.80;;;;;;5078753;28;20046;-19
2022/03/07 11:16:56;;;;;;;8.15;7.35;;;16.80;60.50;;;;;;5093254;28;20051;-19
2022/03/07 11:19:22;;;;;;;8.63;7.75;;;16.80;60.40;;;;;;5071675;28;20497;-19
2022/03/07 11:21:51;;;;;;;8.50;7.68;;;16.80;60.30;;;;;;5063012;28;20130;-19
2022/03/07 11:24:17;;;;;;;8.85;7.72;;;16.80;60.30;;;;;;5054500;28;20048;-19
2022/03/07 11:26:43;;;;;;;8.68;7.63;;;16.80;60.30;;;;;;5064244;28;20068;-19
2022/03/07 11:29:09;;;;;;;10.02;7.68;;;16.80;60.20;;;;;;5054877;28;20056;-19
2022/03/07 11:31:35;;;;;;;8.32;7.63;;;16.80;60.20;;;;;;5054908;28;20040;-19
2022/03/07 11:34:05;;;;;;;8.57;7.78;;;16.80;60.10;;;;;;5054089;28;20076;-19
2022/03/07 11:36:31;;;;;;;7.88;7.18;;;16.80;60.10;;;;;;5063028;28;20112;-18
2022/03/07 11:39:00;;;;;;;8.07;7.35;;;16.80;60.20;;;;;;5074206;28;20529;-19
2022/03/07 11:41:27;;;;;;;7.75;7.13;;;16.80;60.10;;;;;;5078711;28;20104;-19
2022/03/07 11:43:57;;;;;;;8.18;7.53;;;16.80;60.10;;;;;;5065550;28;20773;-19
2022/03/07 11:46:34;;;;;;;7.40;6.70;;;16.80;60.10;;;;;;5096298;28;20131;-19
2022/03/07 11:49:01;;;;;;;7.18;6.65;;;16.90;60.10;;;;;;5083376;28;20036;-19
2022/03/07 11:51:28;;;;;;;7.97;7.28;;;16.80;60.00;;;;;;5061054;28;20051;-18
2022/03/07 11:53:55;;;;;;;7.10;6.50;;;16.80;60.00;;;;;;5075472;28;20044;-19
2022/03/07 11:56:24;;;;;;;7.22;6.60;;;16.80;60.10;;;;;;5073210;28;20048;-19
2022/03/07 11:58:53;;;;;;;6.38;5.78;;;16.90;60.00;;;;;;5056524;28;20041;-19
2022/03/07 12:01:19;;;;;;;7.18;6.47;;;16.90;60.00;;;;;;5058465;28;20056;-19
2022/03/07 12:03:45;;;;;;;6.85;6.25;;;16.90;60.00;;;;;;5055558;28;20041;-19
2022/03/07 12:06:13;;;;;;;7.05;6.25;;;16.90;59.80;;;;;;5058164;28;20069;-18
2022/03/07 12:08:51;;;;;;;5.82;5.38;;;16.90;59.80;;;;;;5058087;28;20128;-19
2022/03/07 12:11:31;;;;;;;6.60;6.10;;;16.90;59.80;;;;;;5057818;28;20053;-19
2022/03/07 12:14:08;;;;;;;6.10;5.57;;;16.90;59.80;;;;;;5061906;28;20053;-19
2022/03/07 12:16:41;;;;;;;6.45;5.95;;;16.90;59.80;;;;;;4713327;28;10000081;-19
2022/03/07 12:19:12;;;;;;;6.63;5.97;;;16.90;59.70;;;;;;5077204;28;20202;-19
2022/03/07 12:21:41;;;;;;;6.45;5.95;;;16.90;59.70;;;;;;5069841;28;20048;-19
2022/03/07 12:24:07;;;;;;;6.07;5.57;;;16.90;59.60;;;;;;5071590;28;20044;-19
2022/03/07 12:26:42;;;;;;;6.70;6.10;;;16.90;59.60;;;;;;5046949;28;20048;-19
2022/03/07 12:29:08;;;;;;;6.90;5.93;;;16.90;59.50;;;;;;5066935;28;20048;-19
2022/03/07 12:31:34;;;;;;;5.80;5.40;;;16.90;59.60;;;;;;5069000;28;20056;-19
2022/03/07 12:33:59;;;;;;;5.93;5.40;;;16.90;59.60;;;;;;5072748;28;20060;-19
2022/03/07 12:36:25;;;;;;;5.32;4.93;;;17.00;59.40;;;;;;5072548;28;20071;-19
2022/03/07 12:38:51;;;;;;;5.65;5.25;;;16.90;59.50;;;;;;5065662;28;20478;-19